Time;durP1;ratioP1;P1;durP2;ratioP2;P2;SDS_P1;SDS_P2;PMS_P1;PMS_P2;Temp;Humidity;BMP_temperature;BMP_pressure;BME280_temperature;BME280_humidity;BME280_pressure;Samples;Min_cycle;Max_cycle;Signal;HPM_P1;HPM_P2
2023/07/29 00:00:43;;;;;;;12.52;5.85;;;18.90;99.90;;;;;;5093964;28;20040;-77
2023/07/29 00:03:09;;;;;;;8.43;6.07;;;18.90;99.90;;;;;;5103911;28;20043;-76
2023/07/29 00:05:35;;;;;;;12.88;6.82;;;18.90;99.90;;;;;;5112131;28;20050;-76
2023/07/29 00:08:01;;;;;;;10.55;6.20;;;18.90;99.90;;;;;;5112537;28;20128;-78
2023/07/29 00:10:27;;;;;;;8.85;6.43;;;18.90;99.90;;;;;;5113037;28;20574;-77
2023/07/29 00:12:52;;;;;;;11.20;6.30;;;18.90;99.90;;;;;;5098236;28;20167;-76
2023/07/29 00:15:18;;;;;;;9.10;6.30;;;18.90;99.90;;;;;;5094238;28;20044;-76
2023/07/29 00:17:44;;;;;;;9.77;6.45;;;18.90;99.90;;;;;;5095500;28;20082;-77
2023/07/29 00:20:10;;;;;;;8.80;6.68;;;18.90;99.90;;;;;;5116722;28;20051;-76
2023/07/29 00:22:36;;;;;;;12.13;6.32;;;18.90;99.90;;;;;;5112784;28;20039;-76
2023/07/29 00:25:01;;;;;;;9.63;6.38;;;18.90;99.90;;;;;;5115681;28;20122;-76
2023/07/29 00:27:27;;;;;;;9.60;6.40;;;18.90;99.90;;;;;;5117609;28;20032;-77
2023/07/29 00:29:53;;;;;;;9.05;6.32;;;18.90;99.90;;;;;;5117744;27;20144;-77
2023/07/29 00:32:18;;;;;;;9.45;6.90;;;18.90;99.90;;;;;;5105945;28;20230;-76
2023/07/29 00:34:44;;;;;;;9.80;6.43;;;18.90;99.90;;;;;;5096849;28;20072;-77
2023/07/29 00:37:10;;;;;;;9.15;7.07;;;18.90;99.90;;;;;;5097746;28;20047;-77
2023/07/29 00:39:37;;;;;;;10.00;6.53;;;18.90;99.90;;;;;;5115824;28;20046;-76
2023/07/29 00:42:03;;;;;;;9.35;6.70;;;18.90;99.90;;;;;;5109084;28;20044;-76
2023/07/29 00:44:31;;;;;;;10.30;7.30;;;18.90;99.90;;;;;;5097037;28;20248;-77
2023/07/29 00:46:57;;;;;;;;;;;18.90;99.90;;;;;;5097314;28;20044;-77
2023/07/29 00:49:23;;;;;;;8.82;6.63;;;18.90;99.90;;;;;;5102964;28;20418;-76
2023/07/29 00:51:49;;;;;;;9.48;7.07;;;18.80;99.90;;;;;;5121968;28;20040;-77
2023/07/29 00:54:14;;;;;;;11.50;7.82;;;18.80;99.90;;;;;;5111849;28;20036;-76
2023/07/29 00:56:40;;;;;;;8.40;6.53;;;18.80;99.90;;;;;;5117103;28;20047;-76
2023/07/29 00:59:06;;;;;;;8.60;6.60;;;18.80;99.90;;;;;;5117518;28;20044;-77
2023/07/29 01:01:32;;;;;;;7.80;6.53;;;18.80;99.90;;;;;;5112214;28;20142;-77
2023/07/29 01:03:58;;;;;;;10.27;8.07;;;18.80;99.90;;;;;;5095463;28;20093;-77
2023/07/29 01:06:44;;;;;;;10.30;7.63;;;18.90;99.90;;;;;;5096381;28;20038;-77
2023/07/29 01:09:36;;;;;;;9.30;7.00;;;18.80;99.90;;;;;;5081998;28;20052;-76
2023/07/29 01:12:17;;;;;;;11.88;7.90;;;18.80;99.90;;;;;;5097151;28;20040;-76
2023/07/29 01:15:10;;;;;;;9.50;7.10;;;18.80;99.90;;;;;;5116597;28;20032;-77
2023/07/29 01:17:55;;;;;;;9.88;7.40;;;18.80;99.90;;;;;;5115240;28;20052;-77
2023/07/29 01:20:24;;;;;;;9.70;7.60;;;18.70;99.90;;;;;;5113153;28;20050;-77
2023/07/29 01:22:49;;;;;;;10.18;7.50;;;18.70;99.90;;;;;;5113313;28;20049;-77
2023/07/29 01:25:15;;;;;;;11.15;7.28;;;18.70;99.90;;;;;;5114924;28;20047;-76
2023/07/29 01:27:46;;;;;;;8.07;7.20;;;18.70;99.90;;;;;;5107728;28;20027;-76
2023/07/29 01:30:12;;;;;;;10.43;7.40;;;18.70;99.90;;;;;;5115261;28;20040;-77
2023/07/29 01:32:55;;;;;;;9.90;7.50;;;18.70;99.90;;;;;;5097661;28;20051;-78
2023/07/29 01:35:42;;;;;;;10.40;7.93;;;18.60;99.90;;;;;;5111514;28;20050;-77
2023/07/29 01:38:18;;;;;;;12.52;7.22;;;18.60;99.90;;;;;;5106353;28;20086;-76
2023/07/29 01:40:44;;;;;;;11.50;7.60;;;18.60;99.90;;;;;;5115515;28;20043;-77
2023/07/29 01:43:10;;;;;;;11.55;7.90;;;18.60;99.90;;;;;;5114316;28;20043;-76
2023/07/29 01:45:38;;;;;;;11.98;7.60;;;18.50;99.90;;;;;;5116573;28;20368;-76
2023/07/29 01:48:07;;;;;;;12.32;8.23;;;18.50;99.90;;;;;;5114635;28;20054;-77
2023/07/29 01:50:33;;;;;;;11.35;7.70;;;18.50;99.90;;;;;;5116115;28;20032;-76
2023/07/29 01:52:59;;;;;;;10.20;7.90;;;18.40;99.90;;;;;;5104697;28;20110;-77
2023/07/29 01:55:25;;;;;;;12.63;8.27;;;18.40;99.90;;;;;;5106894;28;20458;-77
2023/07/29 01:57:51;;;;;;;9.25;7.68;;;18.40;99.90;;;;;;5111690;28;20086;-77
2023/07/29 02:00:18;;;;;;;12.23;7.93;;;18.30;99.90;;;;;;5115797;27;20044;-76
2023/07/29 02:02:44;;;;;;;10.73;8.33;;;18.30;99.90;;;;;;5115985;28;20036;-78
2023/07/29 02:05:10;;;;;;;11.38;8.68;;;18.30;99.90;;;;;;5106802;28;20042;-77
2023/07/29 02:07:35;;;;;;;10.25;8.23;;;18.30;99.90;;;;;;5115812;28;20042;-77
2023/07/29 02:10:01;;;;;;;10.43;7.80;;;18.20;99.90;;;;;;5109429;28;20477;-77
2023/07/29 02:12:26;;;;;;;12.88;8.18;;;18.20;99.90;;;;;;5095684;28;20044;-76
2023/07/29 02:14:52;;;;;;;10.23;8.23;;;18.10;99.90;;;;;;5102004;28;20048;-77
2023/07/29 02:17:18;;;;;;;13.95;8.13;;;18.10;99.90;;;;;;5104784;27;20051;-77
2023/07/29 02:19:44;;;;;;;9.77;8.15;;;18.10;99.90;;;;;;5095199;28;20044;-76
2023/07/29 02:22:14;;;;;;;12.23;7.90;;;18.10;99.90;;;;;;5093880;28;20048;-76
2023/07/29 02:24:40;;;;;;;12.02;8.57;;;18.10;99.90;;;;;;5103986;28;20036;-78
2023/07/29 02:27:06;;;;;;;11.35;8.10;;;18.00;99.90;;;;;;5115562;28;20432;-77
2023/07/29 02:29:32;;;;;;;13.65;8.10;;;18.00;99.90;;;;;;5115234;28;20078;-78
2023/07/29 02:31:59;;;;;;;10.07;7.53;;;18.00;99.90;;;;;;5096639;28;20085;-78
2023/07/29 02:34:25;;;;;;;13.63;8.68;;;18.00;99.90;;;;;;5095642;28;20044;-77
2023/07/29 02:36:50;;;;;;;10.80;7.88;;;17.90;99.90;;;;;;5102562;28;20526;-77
2023/07/29 02:39:16;;;;;;;11.77;8.52;;;17.90;99.90;;;;;;5112456;28;20503;-78
2023/07/29 02:41:42;;;;;;;9.77;8.00;;;17.90;99.90;;;;;;5082378;28;20051;-77
2023/07/29 02:44:07;;;;;;;12.52;7.88;;;17.80;99.90;;;;;;5098223;28;20047;-78
2023/07/29 02:46:33;;;;;;;11.77;8.27;;;17.80;99.90;;;;;;5133726;27;20243;-77
2023/07/29 02:48:59;;;;;;;10.10;8.05;;;17.80;99.90;;;;;;5114604;28;20055;-79
2023/07/29 02:51:25;;;;;;;11.25;7.88;;;17.70;99.90;;;;;;5101792;28;20394;-78
2023/07/29 02:53:51;;;;;;;11.27;7.97;;;17.70;99.90;;;;;;5117255;28;20035;-77
2023/07/29 02:56:16;;;;;;;15.45;7.88;;;17.70;99.90;;;;;;5116624;28;20046;-76
2023/07/29 02:58:42;;;;;;;13.18;8.05;;;17.70;99.90;;;;;;5127472;28;20040;-77
2023/07/29 03:01:07;;;;;;;11.40;7.75;;;17.70;99.90;;;;;;5126873;28;20032;-76
2023/07/29 03:03:33;;;;;;;17.95;9.13;;;17.60;99.90;;;;;;5119895;28;20068;-77
2023/07/29 03:06:03;;;;;;;11.50;8.23;;;17.60;99.90;;;;;;5116842;28;20047;-77
2023/07/29 03:08:29;;;;;;;11.27;8.18;;;17.60;99.90;;;;;;5103446;28;20123;-77
2023/07/29 03:10:56;;;;;;;12.55;8.32;;;17.60;99.90;;;;;;5113016;28;20800;-76
2023/07/29 03:13:22;;;;;;;12.27;8.60;;;17.60;99.90;;;;;;5109647;28;20066;-78
2023/07/29 03:15:47;;;;;;;11.70;8.02;;;17.50;99.90;;;;;;5100301;28;20494;-78
2023/07/29 03:18:13;;;;;;;14.93;8.48;;;17.50;99.90;;;;;;5094592;28;20477;-78
2023/07/29 03:20:38;;;;;;;13.82;8.57;;;17.50;99.90;;;;;;5076265;28;20413;-78
2023/07/29 03:23:04;;;;;;;14.48;8.45;;;17.50;99.90;;;;;;5109859;28;20047;-77
2023/07/29 03:25:30;;;;;;;11.05;8.20;;;17.50;99.90;;;;;;5112177;28;20378;-77
2023/07/29 03:27:55;;;;;;;11.38;7.90;;;17.40;99.90;;;;;;5096762;28;20047;-77
2023/07/29 03:30:22;;;;;;;13.68;7.80;;;17.40;99.90;;;;;;5094116;28;20044;-78
2023/07/29 03:32:48;;;;;;;12.15;8.10;;;17.40;99.90;;;;;;5105775;28;20040;-77
2023/07/29 03:35:14;;;;;;;12.18;8.02;;;17.40;99.90;;;;;;5103425;28;20044;-77
2023/07/29 03:37:40;;;;;;;11.65;8.18;;;17.30;99.90;;;;;;5095418;28;20047;-77
2023/07/29 03:40:09;;;;;;;11.98;7.75;;;17.30;99.90;;;;;;5095943;28;20075;-78
2023/07/29 03:42:35;;;;;;;14.95;7.90;;;17.30;99.90;;;;;;5091941;28;20394;-77
2023/07/29 03:45:01;;;;;;;10.73;7.85;;;17.30;99.90;;;;;;5093750;28;20040;-77
2023/07/29 03:47:27;;;;;;;10.00;7.50;;;17.30;99.90;;;;;;5094107;28;20397;-77
2023/07/29 03:49:53;;;;;;;12.32;7.20;;;17.30;99.90;;;;;;5092411;28;20051;-76
2023/07/29 03:52:18;;;;;;;11.50;8.15;;;17.20;99.90;;;;;;5105248;28;20043;-77
2023/07/29 03:54:44;;;;;;;11.07;7.00;;;17.20;99.90;;;;;;5110241;28;20036;-78
2023/07/29 03:57:10;;;;;;;13.77;7.35;;;17.20;99.90;;;;;;5099292;28;20554;-77
2023/07/29 03:59:35;;;;;;;16.27;8.20;;;17.20;99.90;;;;;;5097886;28;20032;-78
2023/07/29 04:02:01;;;;;;;12.25;7.32;;;17.20;99.90;;;;;;5110379;28;20035;-78
2023/07/29 04:04:26;;;;;;;11.18;7.28;;;17.30;99.90;;;;;;5117800;28;20044;-77
2023/07/29 04:06:52;;;;;;;10.82;7.35;;;17.10;99.90;;;;;;5106842;28;20056;-77
2023/07/29 04:09:18;;;;;;;18.08;7.68;;;17.10;99.90;;;;;;5101907;28;20482;-77
2023/07/29 04:11:43;;;;;;;9.65;6.97;;;17.10;99.90;;;;;;5107821;28;20039;-78
2023/07/29 04:14:09;;;;;;;10.27;6.78;;;17.10;99.90;;;;;;5118672;28;20055;-77
2023/07/29 04:16:35;;;;;;;12.60;7.20;;;17.10;99.90;;;;;;5116823;28;20040;-77
2023/07/29 04:19:00;;;;;;;14.10;6.85;;;17.10;99.90;;;;;;5101356;28;20048;-77
2023/07/29 04:21:26;;;;;;;9.27;6.80;;;17.10;99.90;;;;;;5102167;28;20103;-78
2023/07/29 04:23:52;;;;;;;11.20;7.38;;;17.10;99.90;;;;;;5115029;28;20039;-77
2023/07/29 04:26:17;;;;;;;10.75;6.80;;;17.10;99.90;;;;;;5114369;28;20043;-77
2023/07/29 04:28:43;;;;;;;14.43;7.07;;;17.10;99.90;;;;;;5097512;28;20036;-77
2023/07/29 04:31:09;;;;;;;9.75;6.53;;;17.20;99.90;;;;;;5101125;28;20078;-77
2023/07/29 04:33:34;;;;;;;10.02;6.40;;;17.20;99.90;;;;;;5097927;28;20040;-76
2023/07/29 04:36:00;;;;;;;11.18;7.05;;;17.20;99.90;;;;;;5117029;28;20066;-77
2023/07/29 04:38:32;;;;;;;10.80;6.85;;;17.20;99.90;;;;;;5117704;28;20109;-78
2023/07/29 04:41:01;;;;;;;10.43;6.43;;;17.20;99.90;;;;;;5114986;28;20047;-77
2023/07/29 04:43:31;;;;;;;11.32;6.70;;;17.20;99.90;;;;;;5117711;28;20039;-78
2023/07/29 04:45:56;;;;;;;13.07;6.47;;;17.20;99.90;;;;;;5117454;27;20536;-77
2023/07/29 04:48:22;;;;;;;11.25;6.20;;;17.30;99.90;;;;;;5119132;28;20120;-78
2023/07/29 04:50:48;;;;;;;10.02;5.70;;;17.30;99.90;;;;;;5102196;28;20173;-77
2023/07/29 04:53:13;;;;;;;34.60;6.68;;;17.30;99.90;;;;;;5111494;28;20382;-77
2023/07/29 04:55:42;;;;;;;11.38;5.32;;;17.30;99.90;;;;;;5115890;28;20043;-77
2023/07/29 04:58:08;;;;;;;8.25;4.85;;;17.40;99.90;;;;;;5111554;28;20086;-77
2023/07/29 05:00:34;;;;;;;7.28;4.38;;;17.40;99.90;;;;;;5115901;28;20039;-78
2023/07/29 05:03:00;;;;;;;8.00;4.68;;;17.40;99.90;;;;;;5117906;28;20435;-78
2023/07/29 05:05:26;;;;;;;9.95;4.35;;;17.50;99.90;;;;;;5105301;28;20500;-78
2023/07/29 05:07:52;;;;;;;7.57;4.22;;;17.50;99.90;;;;;;5097009;28;20040;-78
2023/07/29 05:10:18;;;;;;;5.97;4.10;;;17.50;99.90;;;;;;5113802;28;20122;-77
2023/07/29 05:12:44;;;;;;;7.10;4.13;;;17.60;99.90;;;;;;5114128;28;20047;-78
2023/07/29 05:15:10;;;;;;;8.27;4.70;;;17.60;99.90;;;;;;5116522;28;20491;-78
2023/07/29 05:17:36;;;;;;;7.10;3.75;;;17.60;99.90;;;;;;5110417;28;20119;-77
2023/07/29 05:20:01;;;;;;;11.10;4.15;;;17.60;99.90;;;;;;5106436;28;20055;-78
2023/07/29 05:22:27;;;;;;;7.78;3.80;;;17.60;99.90;;;;;;5117196;28;20156;-77
2023/07/29 05:24:52;;;;;;;8.15;4.18;;;17.60;99.90;;;;;;5116443;28;20046;-77
2023/07/29 05:27:18;;;;;;;7.55;3.47;;;17.70;99.90;;;;;;5108070;28;20039;-77
2023/07/29 05:29:44;;;;;;;6.15;3.30;;;17.70;99.90;;;;;;5120327;28;20542;-77
2023/07/29 05:32:09;;;;;;;8.43;3.67;;;17.70;99.90;;;;;;5114034;28;20079;-77
2023/07/29 05:34:35;;;;;;;6.82;3.67;;;17.70;99.90;;;;;;5097624;28;20497;-78
2023/07/29 05:37:00;;;;;;;8.82;4.00;;;17.70;99.90;;;;;;5095424;28;20070;-77
2023/07/29 05:39:26;;;;;;;5.70;3.17;;;17.70;99.90;;;;;;5107683;28;20047;-77
2023/07/29 05:41:52;;;;;;;9.88;3.20;;;17.70;99.90;;;;;;5104808;28;20068;-78
2023/07/29 05:44:17;;;;;;;8.07;3.38;;;17.70;99.90;;;;;;5098913;28;20071;-78
2023/07/29 05:46:43;;;;;;;8.32;3.20;;;17.80;99.90;;;;;;5116775;28;20047;-77
2023/07/29 05:49:08;;;;;;;8.13;3.08;;;17.70;99.90;;;;;;5116509;28;20043;-77
2023/07/29 05:51:34;;;;;;;7.28;3.42;;;17.80;99.90;;;;;;5115266;28;20035;-76
2023/07/29 05:54:00;;;;;;;7.20;3.60;;;17.80;99.90;;;;;;5116121;28;20050;-77
2023/07/29 05:56:25;;;;;;;7.20;3.55;;;17.80;99.90;;;;;;5109139;28;20039;-78
2023/07/29 05:58:51;;;;;;;7.35;3.80;;;17.80;99.90;;;;;;5112520;28;20043;-77
2023/07/29 06:01:17;;;;;;;11.85;4.00;;;17.90;99.90;;;;;;5115909;28;20061;-77
2023/07/29 06:03:42;;;;;;;8.02;4.15;;;17.90;99.90;;;;;;5115593;28;20039;-75
2023/07/29 06:06:08;;;;;;;6.13;3.70;;;17.80;99.90;;;;;;5114987;28;20500;-77
2023/07/29 06:08:34;;;;;;;8.00;3.15;;;17.80;99.90;;;;;;5090469;28;20065;-77
2023/07/29 06:11:00;;;;;;;11.73;3.47;;;17.90;99.90;;;;;;5115511;28;20055;-77
2023/07/29 06:13:26;;;;;;;8.02;3.60;;;17.90;99.90;;;;;;5108418;28;20043;-78
2023/07/29 06:15:51;;;;;;;9.23;3.95;;;17.90;99.90;;;;;;5115568;28;20035;-77
2023/07/29 06:18:17;;;;;;;5.80;3.70;;;17.90;99.90;;;;;;5115142;28;20104;-77
2023/07/29 06:20:43;;;;;;;6.85;3.70;;;17.90;99.90;;;;;;5102811;28;20048;-78
2023/07/29 06:23:08;;;;;;;6.95;3.70;;;18.00;99.90;;;;;;5113467;28;20545;-77
2023/07/29 06:25:34;;;;;;;9.82;4.13;;;18.00;99.90;;;;;;5116580;28;20035;-78
2023/07/29 06:28:00;;;;;;;8.85;3.60;;;18.00;99.90;;;;;;5113438;28;20084;-78
2023/07/29 06:30:25;;;;;;;6.50;3.40;;;18.00;99.90;;;;;;5113870;28;20043;-76
2023/07/29 06:32:51;;;;;;;6.78;3.55;;;18.10;99.90;;;;;;5110053;28;20051;-77
2023/07/29 06:35:17;;;;;;;4.72;3.42;;;18.20;99.90;;;;;;5114440;28;20042;-77
2023/07/29 06:37:42;;;;;;;7.13;3.90;;;18.30;99.90;;;;;;5097651;28;20050;-78
2023/07/29 06:40:09;;;;;;;6.80;3.13;;;18.40;99.90;;;;;;5106157;28;20040;-76
2023/07/29 06:42:34;;;;;;;10.70;3.95;;;18.60;99.90;;;;;;5106481;28;20039;-78
2023/07/29 06:45:00;;;;;;;12.82;4.38;;;18.70;99.90;;;;;;5112401;28;20069;-77
2023/07/29 06:47:25;;;;;;;9.95;3.40;;;18.80;99.90;;;;;;5112146;28;20039;-77
2023/07/29 06:49:53;;;;;;;7.65;3.85;;;18.80;99.90;;;;;;5097050;28;20036;-77
2023/07/29 06:52:19;;;;;;;12.20;4.20;;;18.90;99.90;;;;;;5111127;28;20448;-77
2023/07/29 06:54:44;;;;;;;8.63;3.40;;;18.80;99.90;;;;;;5112124;28;20048;-77
2023/07/29 06:57:10;;;;;;;6.95;3.53;;;18.90;99.90;;;;;;5099406;28;20074;-77
2023/07/29 06:59:36;;;;;;;8.30;4.25;;;18.90;99.90;;;;;;5114930;28;20043;-77
2023/07/29 07:02:02;;;;;;;7.00;3.60;;;18.90;99.90;;;;;;5107144;28;20156;-77
2023/07/29 07:04:27;;;;;;;8.00;3.60;;;18.90;99.90;;;;;;5099059;28;20104;-77
2023/07/29 07:06:53;;;;;;;10.00;4.07;;;19.00;99.90;;;;;;5115325;28;20114;-78
2023/07/29 07:09:19;;;;;;;10.45;3.85;;;19.10;99.90;;;;;;5096153;28;20044;-77
2023/07/29 07:11:45;;;;;;;12.45;3.58;;;19.10;99.90;;;;;;5097381;28;20166;-77
2023/07/29 07:14:10;;;;;;;15.05;5.30;;;19.20;99.90;;;;;;5095335;28;20079;-77
2023/07/29 07:16:36;;;;;;;10.00;4.22;;;19.30;99.90;;;;;;5095208;28;20032;-77
2023/07/29 07:19:03;;;;;;;12.43;4.43;;;19.30;99.90;;;;;;5094671;28;20060;-76
2023/07/29 07:21:28;;;;;;;13.15;3.65;;;19.40;99.90;;;;;;5104214;28;20551;-77
2023/07/29 07:23:54;;;;;;;11.15;3.90;;;19.40;99.90;;;;;;5103556;28;20036;-75
2023/07/29 07:26:20;;;;;;;8.60;3.90;;;19.40;99.90;;;;;;5097025;28;20032;-77
2023/07/29 07:28:45;;;;;;;8.57;4.00;;;19.40;99.90;;;;;;5113250;28;20100;-77
2023/07/29 07:31:11;;;;;;;11.77;4.70;;;19.40;99.90;;;;;;5114125;28;20035;-76
2023/07/29 07:33:37;;;;;;;9.18;4.63;;;19.40;99.90;;;;;;5113569;28;20039;-77
2023/07/29 07:36:05;;;;;;;11.50;5.15;;;19.40;99.90;;;;;;5110181;28;20044;-76
2023/07/29 07:38:31;;;;;;;12.55;4.30;;;19.40;99.90;;;;;;5114092;28;20123;-77
2023/07/29 07:40:57;;;;;;;10.45;3.72;;;19.40;99.90;;;;;;5113189;28;20119;-78
2023/07/29 07:43:23;;;;;;;8.23;4.00;;;19.50;99.90;;;;;;5110698;28;20040;-77
2023/07/29 07:45:49;;;;;;;10.57;3.90;;;19.60;99.90;;;;;;5103017;28;20040;-77
2023/07/29 07:48:16;;;;;;;11.45;4.25;;;19.60;99.90;;;;;;5094334;28;20382;-77
2023/07/29 07:50:42;;;;;;;11.25;3.70;;;19.70;99.90;;;;;;5103763;28;20513;-78
2023/07/29 07:53:08;;;;;;;11.88;4.90;;;19.80;99.90;;;;;;5105039;28;20035;-77
2023/07/29 07:55:34;;;;;;;8.85;4.07;;;19.90;99.90;;;;;;5113456;28;20055;-78
2023/07/29 07:58:00;;;;;;;12.02;4.38;;;19.90;99.90;;;;;;5109510;28;20040;-77
2023/07/29 08:00:25;;;;;;;9.48;3.80;;;19.90;99.90;;;;;;5094889;28;20036;-77
2023/07/29 08:02:51;;;;;;;7.15;3.67;;;19.90;99.90;;;;;;5094749;28;20093;-78
2023/07/29 08:05:18;;;;;;;9.85;4.00;;;19.90;99.90;;;;;;5093992;28;20036;-76
2023/07/29 08:07:43;;;;;;;8.05;3.38;;;20.10;99.90;;;;;;5100252;28;20043;-78
2023/07/29 08:10:09;;;;;;;12.27;3.70;;;20.20;99.90;;;;;;5116139;28;20047;-77
2023/07/29 08:12:38;;;;;;;9.60;3.97;;;20.30;99.90;;;;;;5108199;28;20123;-78
2023/07/29 08:15:04;;;;;;;14.60;3.88;;;20.40;99.90;;;;;;5096328;28;20091;-78
2023/07/29 08:17:30;;;;;;;5.22;3.05;;;20.50;99.90;;;;;;5094162;28;20048;-77
2023/07/29 08:19:56;;;;;;;9.85;3.10;;;20.60;99.90;;;;;;5100547;28;20036;-77
2023/07/29 08:22:21;;;;;;;6.63;3.33;;;20.60;99.90;;;;;;5113039;28;20044;-77
2023/07/29 08:24:47;;;;;;;7.18;3.90;;;20.70;99.90;;;;;;5106340;28;20098;-78
2023/07/29 08:27:13;;;;;;;13.35;3.75;;;20.60;99.90;;;;;;5103510;28;20043;-78
2023/07/29 08:29:39;;;;;;;17.00;4.35;;;20.70;99.90;;;;;;5116440;28;20043;-78
2023/07/29 08:32:05;;;;;;;8.00;3.30;;;20.80;99.90;;;;;;5109154;28;20052;-78
2023/07/29 08:34:30;;;;;;;7.70;3.58;;;21.00;99.90;;;;;;5092755;28;20478;-77
2023/07/29 08:36:56;;;;;;;7.65;3.15;;;21.20;99.90;;;;;;5095279;28;20169;-78
2023/07/29 08:39:22;;;;;;;8.73;2.70;;;21.40;99.90;;;;;;5092451;28;20307;-77
2023/07/29 08:42:08;;;;;;;7.10;3.00;;;21.40;99.90;;;;;;5102886;28;20039;-77
2023/07/29 08:44:45;;;;;;;8.82;3.10;;;21.30;99.90;;;;;;5114022;28;20047;-78
2023/07/29 08:47:13;;;;;;;5.90;2.75;;;21.20;99.90;;;;;;5097974;28;20115;-78
2023/07/29 08:49:39;;;;;;;6.38;2.80;;;21.10;99.90;;;;;;5099160;28;20075;-77
2023/07/29 08:52:07;;;;;;;6.32;2.55;;;21.00;99.90;;;;;;5097420;28;20478;-76
2023/07/29 08:54:33;;;;;;;6.30;2.80;;;21.00;99.90;;;;;;5103432;28;20131;-77
2023/07/29 08:56:59;;;;;;;5.97;2.65;;;20.90;99.90;;;;;;5100619;28;20067;-77
2023/07/29 08:59:28;;;;;;;5.72;2.50;;;20.90;99.90;;;;;;5118013;28;20035;-77
2023/07/29 09:01:57;;;;;;;7.82;2.50;;;20.80;99.90;;;;;;5100025;28;20079;-78
2023/07/29 09:04:23;;;;;;;7.45;2.28;;;20.90;99.90;;;;;;5078666;28;20517;-76
2023/07/29 09:06:51;;;;;;;9.18;2.70;;;21.20;99.90;;;;;;5101236;28;20406;-78
2023/07/29 09:09:16;;;;;;;;;;;21.60;99.90;;;;;;5115672;28;20070;-78
2023/07/29 09:11:43;;;;;;;7.57;2.45;;;21.90;99.90;;;;;;5118828;28;20366;-77
2023/07/29 09:14:10;;;;;;;6.47;2.35;;;22.00;99.90;;;;;;5116502;28;20032;-78
2023/07/29 09:16:36;;;;;;;4.03;2.10;;;22.10;99.90;;;;;;5103283;28;20115;-77
2023/07/29 09:19:03;;;;;;;7.15;2.05;;;22.00;99.90;;;;;;5097205;28;20141;-77
2023/07/29 09:21:31;;;;;;;4.35;2.00;;;22.00;99.90;;;;;;5109169;28;20047;-79
2023/07/29 09:24:02;;;;;;;6.43;2.33;;;21.90;99.90;;;;;;5111675;28;20077;-76
2023/07/29 09:26:28;;;;;;;5.80;2.40;;;21.80;99.90;;;;;;5101189;28;20040;-77
2023/07/29 09:28:58;;;;;;;8.98;2.50;;;21.80;99.90;;;;;;5122566;28;20035;-78
2023/07/29 09:31:28;;;;;;;5.15;2.30;;;21.80;99.90;;;;;;5123667;28;20035;-77
2023/07/29 09:34:03;;;;;;;5.50;2.10;;;21.70;99.90;;;;;;5123752;28;20032;-77
2023/07/29 09:36:32;;;;;;;7.18;2.20;;;21.90;99.90;;;;;;5114832;28;20047;-76
2023/07/29 09:38:58;;;;;;;6.13;2.25;;;22.00;99.90;;;;;;5095106;28;20558;-79
2023/07/29 09:41:30;;;;;;;6.18;2.13;;;22.20;99.90;;;;;;5101312;28;20050;-78
2023/07/29 09:43:58;;;;;;;2.92;1.63;;;22.50;99.90;;;;;;5110351;28;20556;-76
2023/07/29 09:46:25;;;;;;;24.98;2.92;;;22.50;99.90;;;;;;5116629;28;20043;-78
2023/07/29 09:48:56;;;;;;;5.38;2.00;;;22.40;99.90;;;;;;5106866;28;20071;-77
2023/07/29 09:51:22;;;;;;;3.95;1.70;;;22.30;99.90;;;;;;5099704;28;20707;-75
2023/07/29 09:53:49;;;;;;;5.53;1.90;;;22.40;99.90;;;;;;5114679;28;20122;-77
2023/07/29 09:56:16;;;;;;;3.75;1.63;;;22.60;99.90;;;;;;5110837;28;20390;-78
2023/07/29 09:58:47;;;;;;;4.90;1.95;;;22.60;99.90;;;;;;5107144;28;20040;-77
2023/07/29 10:01:14;;;;;;;5.28;1.95;;;22.60;99.90;;;;;;5118725;28;20183;-76
2023/07/29 10:03:40;;;;;;;8.63;2.00;;;22.50;99.90;;;;;;5118296;28;20055;-78
2023/07/29 10:06:07;;;;;;;4.43;1.60;;;22.50;99.90;;;;;;5116125;28;20075;-77
2023/07/29 10:08:38;;;;;;;5.90;2.33;;;22.70;99.90;;;;;;5117528;28;20093;-78
2023/07/29 10:11:06;;;;;;;5.35;1.70;;;22.80;99.90;;;;;;5116227;28;20085;-78
2023/07/29 10:13:33;;;;;;;7.78;2.45;;;22.90;99.90;;;;;;5109347;28;20044;-78
2023/07/29 10:16:02;;;;;;;7.95;2.13;;;23.10;99.90;;;;;;5078242;28;20052;-77
2023/07/29 10:18:28;;;;;;;7.28;1.92;;;23.20;99.90;;;;;;5096251;28;20123;-77
2023/07/29 10:20:56;;;;;;;5.40;2.03;;;23.40;99.90;;;;;;5104396;28;20043;-76
2023/07/29 10:23:24;;;;;;;8.55;2.00;;;23.40;99.90;;;;;;5119451;28;20047;-79
2023/07/29 10:26:04;;;;;;;6.20;1.80;;;23.40;99.90;;;;;;5118129;28;20122;-76
2023/07/29 10:28:32;;;;;;;5.55;1.92;;;23.40;99.90;;;;;;5115820;28;20043;-77
2023/07/29 10:30:58;;;;;;;12.35;1.88;;;23.40;99.90;;;;;;5112846;28;20061;-77
2023/07/29 10:33:25;;;;;;;6.97;2.30;;;23.30;99.90;;;;;;5096107;28;20493;-77
2023/07/29 10:35:52;;;;;;;5.32;1.80;;;23.20;99.90;;;;;;5096607;28;20067;-78
2023/07/29 10:38:19;;;;;;;6.30;1.70;;;23.20;99.90;;;;;;5095385;28;20044;-77
2023/07/29 10:40:56;;;;;;;5.80;1.95;;;23.30;99.90;;;;;;5114347;28;20048;-77
2023/07/29 10:43:29;;;;;;;4.13;1.73;;;23.50;99.90;;;;;;5116309;28;20044;-77
2023/07/29 10:45:56;;;;;;;3.80;1.80;;;23.80;99.90;;;;;;5116584;28;20040;-78
2023/07/29 10:48:55;;;;;;;4.20;1.70;;;23.80;99.90;;;;;;5106873;28;20115;-79
2023/07/29 10:51:29;;;;;;;4.85;1.77;;;23.60;99.90;;;;;;5081574;28;20048;-77
2023/07/29 10:54:03;;;;;;;7.80;2.63;;;23.60;99.90;;;;;;5100097;28;20055;-77
2023/07/29 10:56:34;;;;;;;4.18;1.52;;;23.50;99.90;;;;;;5101665;28;20048;-78
2023/07/29 10:59:26;;;;;;;5.00;1.60;;;23.50;99.90;;;;;;5109769;28;20044;-77
2023/07/29 11:02:02;;;;;;;5.88;1.90;;;23.40;99.90;;;;;;5109115;28;20130;-75
2023/07/29 11:04:30;;;;;;;4.22;1.67;;;23.30;99.90;;;;;;5094678;28;20459;-77
2023/07/29 11:07:08;;;;;;;5.63;2.17;;;23.30;99.90;;;;;;5093796;28;20043;-78
2023/07/29 11:09:49;;;;;;;5.55;2.05;;;23.20;99.90;;;;;;5109163;28;20392;-76
2023/07/29 11:12:37;;;;;;;5.13;1.88;;;23.20;99.90;;;;;;5112893;28;20047;-78
2023/07/29 11:15:15;;;;;;;5.50;1.90;;;23.10;99.90;;;;;;5093705;28;20097;-78
2023/07/29 11:17:57;;;;;;;4.40;1.92;;;22.90;99.90;;;;;;5115480;28;20428;-79
2023/07/29 11:20:27;;;;;;;7.03;2.15;;;22.60;99.90;;;;;;5115309;28;20040;-76
2023/07/29 11:22:54;;;;;;;5.07;1.60;;;22.40;99.90;;;;;;5114923;28;20040;-76
2023/07/29 11:25:22;;;;;;;4.47;1.70;;;22.30;99.90;;;;;;5112096;28;20050;-77
2023/07/29 11:27:48;;;;;;;;;;;22.20;99.90;;;;;;5108549;28;20050;-76
2023/07/29 11:30:15;;;;;;;4.45;1.60;;;22.00;99.90;;;;;;5112378;28;20014;-77
2023/07/29 11:32:44;;;;;;;2.03;1.10;;;22.10;99.90;;;;;;5077816;28;20054;-76
2023/07/29 11:35:12;;;;;;;6.45;1.70;;;22.40;99.90;;;;;;5097209;28;20421;-77
2023/07/29 11:37:39;;;;;;;4.63;2.05;;;22.60;99.90;;;;;;5093640;28;20035;-76
2023/07/29 11:40:06;;;;;;;6.22;1.90;;;22.70;99.90;;;;;;5100717;28;20078;-78
2023/07/29 11:42:36;;;;;;;5.82;2.65;;;22.80;99.90;;;;;;5113177;28;20047;-77
2023/07/29 11:45:05;;;;;;;3.70;1.60;;;23.00;99.90;;;;;;5095535;28;20047;-78
2023/07/29 11:47:31;;;;;;;5.72;1.90;;;23.20;99.90;;;;;;5110579;28;20055;-77
2023/07/29 11:50:00;;;;;;;4.53;1.70;;;23.40;99.90;;;;;;5115720;28;20036;-76
2023/07/29 11:52:26;;;;;;;8.75;2.25;;;23.50;99.90;;;;;;5113460;28;20377;-78
2023/07/29 11:54:52;;;;;;;3.77;2.13;;;23.60;99.90;;;;;;5094933;28;20048;-77
2023/07/29 11:57:18;;;;;;;4.95;1.95;;;23.50;99.90;;;;;;5083496;28;20141;-78
2023/07/29 11:59:45;;;;;;;5.60;1.98;;;23.40;99.90;;;;;;5097028;28;20124;-77
2023/07/29 12:02:16;;;;;;;6.30;2.08;;;23.40;99.90;;;;;;5095925;28;20032;-79
2023/07/29 12:04:42;;;;;;;3.38;1.80;;;23.20;99.90;;;;;;5102208;28;20542;-78
2023/07/29 12:07:09;;;;;;;8.93;2.40;;;22.80;99.90;;;;;;5112536;28;20094;-77
2023/07/29 12:09:36;;;;;;;6.80;2.55;;;22.70;99.90;;;;;;5098896;28;20048;-77
2023/07/29 12:12:06;;;;;;;5.95;2.28;;;22.80;99.90;;;;;;5109903;28;20065;-77
2023/07/29 12:14:32;;;;;;;3.53;2.15;;;22.90;99.90;;;;;;5117775;28;20043;-76
2023/07/29 12:17:07;;;;;;;4.57;2.28;;;22.90;99.90;;;;;;5125037;28;20067;-77
2023/07/29 12:19:37;;;;;;;6.70;2.47;;;22.90;99.90;;;;;;5126605;28;20040;-78
2023/07/29 12:22:04;;;;;;;5.85;2.15;;;22.90;99.90;;;;;;5127887;28;20042;-79
2023/07/29 12:24:31;;;;;;;;;;;22.90;99.90;;;;;;5119657;28;20070;-79
2023/07/29 12:26:56;;;;;;;3.33;1.90;;;23.00;99.90;;;;;;5120935;28;20430;-77
2023/07/29 12:29:22;;;;;;;7.30;2.60;;;23.20;99.90;;;;;;5113083;28;20048;-77
2023/07/29 12:31:48;;;;;;;5.68;2.20;;;23.30;99.90;;;;;;5119894;28;20039;-77
2023/07/29 12:34:21;;;;;;;4.05;1.90;;;23.20;99.90;;;;;;5120556;28;20046;-78
2023/07/29 12:36:49;;;;;;;8.20;1.92;;;23.10;99.90;;;;;;5106613;28;20043;-79
2023/07/29 12:39:31;;;;;;;;;;;23.10;99.90;;;;;;5101856;28;20036;-77
2023/07/29 12:42:00;;;;;;;4.25;2.25;;;23.50;99.90;;;;;;5104791;28;20343;-78
2023/07/29 12:44:32;;;;;;;8.52;2.70;;;23.70;99.90;;;;;;5119943;28;20065;-76